sensor_id;sensor_type;location;lat;lon;timestamp;P1;durP1;ratioP1;P2;durP2;ratioP2
3811;SDS011;1921;49.368;11.068;2023-03-31T00:00:56;50.30;;;44.80;;
3811;SDS011;1921;49.368;11.068;2023-03-31T00:03:22;49.47;;;44.47;;
3811;SDS011;1921;49.368;11.068;2023-03-31T00:05:49;50.13;;;45.13;;
3811;SDS011;1921;49.368;11.068;2023-03-31T00:08:20;49.27;;;44.30;;
3811;SDS011;1921;49.368;11.068;2023-03-31T00:10:46;49.90;;;44.90;;
3811;SDS011;1921;49.368;11.068;2023-03-31T00:13:12;49.73;;;44.83;;
3811;SDS011;1921;49.368;11.068;2023-03-31T00:15:38;49.20;;;44.50;;
3811;SDS011;1921;49.368;11.068;2023-03-31T00:18:05;49.80;;;44.90;;
3811;SDS011;1921;49.368;11.068;2023-03-31T00:20:31;49.87;;;44.67;;
3811;SDS011;1921;49.368;11.068;2023-03-31T00:23:02;49.63;;;44.53;;
3811;SDS011;1921;49.368;11.068;2023-03-31T00:25:34;49.87;;;44.90;;
3811;SDS011;1921;49.368;11.068;2023-03-31T00:28:04;49.37;;;44.50;;
3811;SDS011;1921;49.368;11.068;2023-03-31T00:30:30;49.33;;;44.53;;
3811;SDS011;1921;49.368;11.068;2023-03-31T00:32:56;49.63;;;44.87;;
3811;SDS011;1921;49.368;11.068;2023-03-31T00:35:21;48.80;;;44.10;;
3811;SDS011;1921;49.368;11.068;2023-03-31T00:37:47;49.60;;;44.70;;
3811;SDS011;1921;49.368;11.068;2023-03-31T00:40:13;49.73;;;44.77;;
3811;SDS011;1921;49.368;11.068;2023-03-31T00:42:39;49.63;;;44.47;;
3811;SDS011;1921;49.368;11.068;2023-03-31T00:47:38;49.60;;;44.50;;
3811;SDS011;1921;49.368;11.068;2023-03-31T00:50:27;49.60;;;44.43;;
3811;SDS011;1921;49.368;11.068;2023-03-31T00:53:07;49.43;;;44.40;;
3811;SDS011;1921;49.368;11.068;2023-03-31T00:55:42;49.10;;;44.40;;
3811;SDS011;1921;49.368;11.068;2023-03-31T00:58:16;49.00;;;44.20;;
3811;SDS011;1921;49.368;11.068;2023-03-31T01:00:45;49.70;;;44.27;;
3811;SDS011;1921;49.368;11.068;2023-03-31T01:03:12;49.90;;;44.60;;
3811;SDS011;1921;49.368;11.068;2023-03-31T01:08:12;49.80;;;44.70;;
3811;SDS011;1921;49.368;11.068;2023-03-31T01:10:40;50.17;;;45.17;;
3811;SDS011;1921;49.368;11.068;2023-03-31T01:13:13;49.37;;;44.47;;
3811;SDS011;1921;49.368;11.068;2023-03-31T01:15:41;49.70;;;44.70;;
3811;SDS011;1921;49.368;11.068;2023-03-31T01:18:07;50.27;;;44.90;;
3811;SDS011;1921;49.368;11.068;2023-03-31T01:20:44;50.40;;;45.10;;
3811;SDS011;1921;49.368;11.068;2023-03-31T01:26:46;48.47;;;43.87;;
3811;SDS011;1921;49.368;11.068;2023-03-31T01:33:16;48.40;;;43.90;;
3811;SDS011;1921;49.368;11.068;2023-03-31T01:42:13;49.00;;;44.40;;
3811;SDS011;1921;49.368;11.068;2023-03-31T01:48:18;50.20;;;45.20;;
3811;SDS011;1921;49.368;11.068;2023-03-31T01:53:50;50.00;;;44.93;;
3811;SDS011;1921;49.368;11.068;2023-03-31T01:56:30;49.87;;;45.00;;
3811;SDS011;1921;49.368;11.068;2023-03-31T01:59:01;50.73;;;45.13;;
3811;SDS011;1921;49.368;11.068;2023-03-31T02:01:38;49.80;;;44.90;;
3811;SDS011;1921;49.368;11.068;2023-03-31T02:04:28;49.10;;;44.40;;
3811;SDS011;1921;49.368;11.068;2023-03-31T02:07:06;50.37;;;45.13;;
3811;SDS011;1921;49.368;11.068;2023-03-31T02:09:42;49.40;;;44.50;;
3811;SDS011;1921;49.368;11.068;2023-03-31T02:12:13;50.13;;;45.07;;
3811;SDS011;1921;49.368;11.068;2023-03-31T02:14:43;49.77;;;44.77;;
3811;SDS011;1921;49.368;11.068;2023-03-31T02:17:17;49.90;;;45.00;;
3811;SDS011;1921;49.368;11.068;2023-03-31T02:19:48;49.37;;;44.57;;
3811;SDS011;1921;49.368;11.068;2023-03-31T02:22:17;49.50;;;44.70;;
3811;SDS011;1921;49.368;11.068;2023-03-31T02:24:47;49.70;;;44.90;;
3811;SDS011;1921;49.368;11.068;2023-03-31T02:27:26;50.17;;;45.30;;
3811;SDS011;1921;49.368;11.068;2023-03-31T02:29:59;49.77;;;44.97;;
3811;SDS011;1921;49.368;11.068;2023-03-31T02:32:30;49.20;;;44.50;;
3811;SDS011;1921;49.368;11.068;2023-03-31T02:35:01;50.33;;;45.23;;
3811;SDS011;1921;49.368;11.068;2023-03-31T02:37:28;49.13;;;44.30;;
3811;SDS011;1921;49.368;11.068;2023-03-31T02:39:55;49.20;;;44.50;;
3811;SDS011;1921;49.368;11.068;2023-03-31T02:42:25;50.07;;;44.97;;
3811;SDS011;1921;49.368;11.068;2023-03-31T02:44:51;49.57;;;44.63;;
3811;SDS011;1921;49.368;11.068;2023-03-31T02:47:17;50.33;;;45.13;;
3811;SDS011;1921;49.368;11.068;2023-03-31T02:49:52;49.60;;;44.70;;
3811;SDS011;1921;49.368;11.068;2023-03-31T02:55:23;50.70;;;45.17;;
3811;SDS011;1921;49.368;11.068;2023-03-31T02:58:15;50.07;;;45.20;;
3811;SDS011;1921;49.368;11.068;2023-03-31T03:12:40;50.20;;;45.10;;
3811;SDS011;1921;49.368;11.068;2023-03-31T03:18:15;50.27;;;44.80;;
3811;SDS011;1921;49.368;11.068;2023-03-31T03:20:41;49.27;;;44.37;;
3811;SDS011;1921;49.368;11.068;2023-03-31T03:23:12;49.70;;;44.90;;
3811;SDS011;1921;49.368;11.068;2023-03-31T03:25:39;50.00;;;44.77;;
3811;SDS011;1921;49.368;11.068;2023-03-31T03:28:05;49.97;;;45.00;;
3811;SDS011;1921;49.368;11.068;2023-03-31T03:30:31;49.70;;;44.70;;
3811;SDS011;1921;49.368;11.068;2023-03-31T03:32:57;49.87;;;44.90;;
3811;SDS011;1921;49.368;11.068;2023-03-31T03:35:23;49.50;;;44.70;;
3811;SDS011;1921;49.368;11.068;2023-03-31T03:37:49;48.80;;;44.20;;
3811;SDS011;1921;49.368;11.068;2023-03-31T03:40:15;49.77;;;44.87;;
3811;SDS011;1921;49.368;11.068;2023-03-31T03:42:41;49.60;;;44.70;;
3811;SDS011;1921;49.368;11.068;2023-03-31T03:45:07;50.47;;;45.40;;
3811;SDS011;1921;49.368;11.068;2023-03-31T03:47:33;49.37;;;44.67;;
3811;SDS011;1921;49.368;11.068;2023-03-31T03:50:00;49.50;;;44.80;;
3811;SDS011;1921;49.368;11.068;2023-03-31T03:52:27;49.80;;;45.00;;
3811;SDS011;1921;49.368;11.068;2023-03-31T03:54:53;49.57;;;44.80;;
3811;SDS011;1921;49.368;11.068;2023-03-31T03:57:19;49.30;;;44.40;;
3811;SDS011;1921;49.368;11.068;2023-03-31T03:59:45;50.53;;;45.43;;
3811;SDS011;1921;49.368;11.068;2023-03-31T04:02:11;49.80;;;44.90;;
3811;SDS011;1921;49.368;11.068;2023-03-31T04:04:37;54.03;;;45.17;;
3811;SDS011;1921;49.368;11.068;2023-03-31T04:07:03;49.77;;;44.67;;
3811;SDS011;1921;49.368;11.068;2023-03-31T04:09:29;49.63;;;44.73;;
3811;SDS011;1921;49.368;11.068;2023-03-31T04:11:55;50.93;;;45.40;;
3811;SDS011;1921;49.368;11.068;2023-03-31T04:14:21;49.67;;;44.87;;
3811;SDS011;1921;49.368;11.068;2023-03-31T04:16:46;49.90;;;44.87;;
3811;SDS011;1921;49.368;11.068;2023-03-31T04:19:12;50.60;;;45.50;;
3811;SDS011;1921;49.368;11.068;2023-03-31T04:21:41;51.23;;;45.10;;
3811;SDS011;1921;49.368;11.068;2023-03-31T04:24:09;49.23;;;44.23;;
3811;SDS011;1921;49.368;11.068;2023-03-31T04:26:45;49.83;;;44.83;;
3811;SDS011;1921;49.368;11.068;2023-03-31T04:29:14;50.40;;;45.10;;
3811;SDS011;1921;49.368;11.068;2023-03-31T04:31:41;51.20;;;46.10;;
3811;SDS011;1921;49.368;11.068;2023-03-31T04:34:12;50.80;;;45.50;;
3811;SDS011;1921;49.368;11.068;2023-03-31T04:36:43;50.00;;;45.10;;
3811;SDS011;1921;49.368;11.068;2023-03-31T04:39:11;50.63;;;45.37;;
3811;SDS011;1921;49.368;11.068;2023-03-31T04:41:43;50.63;;;45.63;;
3811;SDS011;1921;49.368;11.068;2023-03-31T04:44:08;50.43;;;45.37;;
3811;SDS011;1921;49.368;11.068;2023-03-31T04:46:34;49.70;;;44.70;;
3811;SDS011;1921;49.368;11.068;2023-03-31T04:49:00;51.13;;;45.60;;
3811;SDS011;1921;49.368;11.068;2023-03-31T04:51:27;50.43;;;45.33;;
3811;SDS011;1921;49.368;11.068;2023-03-31T04:53:53;50.33;;;45.03;;
3811;SDS011;1921;49.368;11.068;2023-03-31T04:56:19;49.90;;;45.00;;
3811;SDS011;1921;49.368;11.068;2023-03-31T04:58:46;59.83;;;46.20;;
3811;SDS011;1921;49.368;11.068;2023-03-31T05:01:12;51.80;;;45.63;;
3811;SDS011;1921;49.368;11.068;2023-03-31T05:03:42;50.40;;;45.20;;
3811;SDS011;1921;49.368;11.068;2023-03-31T05:06:09;50.60;;;45.60;;
3811;SDS011;1921;49.368;11.068;2023-03-31T05:08:35;50.97;;;45.87;;
3811;SDS011;1921;49.368;11.068;2023-03-31T05:11:02;50.03;;;45.03;;
3811;SDS011;1921;49.368;11.068;2023-03-31T05:13:28;55.73;;;45.37;;
3811;SDS011;1921;49.368;11.068;2023-03-31T05:15:53;50.20;;;45.30;;
3811;SDS011;1921;49.368;11.068;2023-03-31T05:18:19;50.67;;;45.43;;
3811;SDS011;1921;49.368;11.068;2023-03-31T05:20:45;52.13;;;46.40;;
3811;SDS011;1921;49.368;11.068;2023-03-31T05:23:11;50.83;;;45.73;;
3811;SDS011;1921;49.368;11.068;2023-03-31T05:25:38;50.10;;;45.20;;
3811;SDS011;1921;49.368;11.068;2023-03-31T05:28:03;50.43;;;45.23;;
3811;SDS011;1921;49.368;11.068;2023-03-31T05:30:30;50.53;;;45.43;;
3811;SDS011;1921;49.368;11.068;2023-03-31T05:32:55;50.40;;;45.30;;
3811;SDS011;1921;49.368;11.068;2023-03-31T05:35:21;50.80;;;45.63;;
3811;SDS011;1921;49.368;11.068;2023-03-31T05:37:47;50.10;;;45.10;;
3811;SDS011;1921;49.368;11.068;2023-03-31T05:40:13;50.80;;;45.40;;
3811;SDS011;1921;49.368;11.068;2023-03-31T05:42:39;50.60;;;45.50;;
3811;SDS011;1921;49.368;11.068;2023-03-31T05:45:06;51.10;;;45.90;;
3811;SDS011;1921;49.368;11.068;2023-03-31T05:47:32;51.40;;;45.93;;
3811;SDS011;1921;49.368;11.068;2023-03-31T05:49:57;50.00;;;45.00;;
3811;SDS011;1921;49.368;11.068;2023-03-31T05:52:23;51.90;;;45.23;;
3811;SDS011;1921;49.368;11.068;2023-03-31T05:54:49;50.93;;;45.57;;
3811;SDS011;1921;49.368;11.068;2023-03-31T05:57:15;50.20;;;45.13;;
3811;SDS011;1921;49.368;11.068;2023-03-31T05:59:40;54.70;;;46.10;;
3811;SDS011;1921;49.368;11.068;2023-03-31T06:02:06;49.73;;;44.80;;
3811;SDS011;1921;49.368;11.068;2023-03-31T06:04:35;51.43;;;45.73;;
3811;SDS011;1921;49.368;11.068;2023-03-31T06:07:01;52.10;;;46.30;;
3811;SDS011;1921;49.368;11.068;2023-03-31T06:09:26;54.47;;;45.77;;
3811;SDS011;1921;49.368;11.068;2023-03-31T06:11:52;50.63;;;45.43;;
3811;SDS011;1921;49.368;11.068;2023-03-31T06:14:18;50.50;;;45.50;;
3811;SDS011;1921;49.368;11.068;2023-03-31T06:16:43;51.60;;;45.97;;
3811;SDS011;1921;49.368;11.068;2023-03-31T06:19:11;51.43;;;45.83;;
3811;SDS011;1921;49.368;11.068;2023-03-31T06:21:37;50.70;;;45.50;;
3811;SDS011;1921;49.368;11.068;2023-03-31T06:24:03;50.70;;;45.60;;
3811;SDS011;1921;49.368;11.068;2023-03-31T06:26:29;50.87;;;45.43;;
3811;SDS011;1921;49.368;11.068;2023-03-31T06:28:56;51.87;;;46.37;;
3811;SDS011;1921;49.368;11.068;2023-03-31T06:31:22;51.03;;;45.77;;
3811;SDS011;1921;49.368;11.068;2023-03-31T06:33:49;50.97;;;45.87;;
3811;SDS011;1921;49.368;11.068;2023-03-31T06:36:16;50.63;;;45.33;;
3811;SDS011;1921;49.368;11.068;2023-03-31T06:38:45;51.50;;;46.30;;
3811;SDS011;1921;49.368;11.068;2023-03-31T06:41:12;49.90;;;45.07;;
3811;SDS011;1921;49.368;11.068;2023-03-31T06:43:39;50.50;;;45.40;;
3811;SDS011;1921;49.368;11.068;2023-03-31T06:46:05;51.27;;;45.83;;
3811;SDS011;1921;49.368;11.068;2023-03-31T06:48:31;50.90;;;45.70;;
3811;SDS011;1921;49.368;11.068;2023-03-31T06:51:02;51.10;;;46.10;;
3811;SDS011;1921;49.368;11.068;2023-03-31T06:53:29;56.20;;;46.63;;
3811;SDS011;1921;49.368;11.068;2023-03-31T06:55:56;50.93;;;45.53;;
3811;SDS011;1921;49.368;11.068;2023-03-31T06:58:22;51.73;;;46.33;;
3811;SDS011;1921;49.368;11.068;2023-03-31T07:00:48;51.10;;;45.83;;
3811;SDS011;1921;49.368;11.068;2023-03-31T07:03:15;52.37;;;47.07;;
3811;SDS011;1921;49.368;11.068;2023-03-31T07:05:50;52.20;;;46.60;;
3811;SDS011;1921;49.368;11.068;2023-03-31T07:08:20;50.37;;;45.37;;
3811;SDS011;1921;49.368;11.068;2023-03-31T07:10:47;52.30;;;47.00;;
3811;SDS011;1921;49.368;11.068;2023-03-31T07:13:17;53.70;;;46.87;;
3811;SDS011;1921;49.368;11.068;2023-03-31T07:15:51;53.33;;;47.27;;
3811;SDS011;1921;49.368;11.068;2023-03-31T07:18:28;52.80;;;47.23;;
3811;SDS011;1921;49.368;11.068;2023-03-31T07:20:58;52.60;;;47.20;;
3811;SDS011;1921;49.368;11.068;2023-03-31T07:23:24;55.87;;;47.33;;
3811;SDS011;1921;49.368;11.068;2023-03-31T07:25:50;52.60;;;47.30;;
3811;SDS011;1921;49.368;11.068;2023-03-31T07:28:17;52.13;;;46.40;;
3811;SDS011;1921;49.368;11.068;2023-03-31T07:30:42;53.30;;;47.70;;
3811;SDS011;1921;49.368;11.068;2023-03-31T07:33:08;53.10;;;47.53;;
3811;SDS011;1921;49.368;11.068;2023-03-31T07:35:36;52.73;;;47.10;;
3811;SDS011;1921;49.368;11.068;2023-03-31T07:38:04;52.40;;;47.00;;
3811;SDS011;1921;49.368;11.068;2023-03-31T07:40:31;52.33;;;47.10;;
3811;SDS011;1921;49.368;11.068;2023-03-31T07:42:57;55.40;;;48.63;;
3811;SDS011;1921;49.368;11.068;2023-03-31T07:45:23;54.40;;;48.50;;
3811;SDS011;1921;49.368;11.068;2023-03-31T07:47:50;53.00;;;47.40;;
3811;SDS011;1921;49.368;11.068;2023-03-31T07:50:17;53.97;;;48.17;;
3811;SDS011;1921;49.368;11.068;2023-03-31T07:52:43;53.97;;;48.40;;
3811;SDS011;1921;49.368;11.068;2023-03-31T07:55:10;53.73;;;48.27;;
3811;SDS011;1921;49.368;11.068;2023-03-31T07:57:36;67.60;;;49.17;;
3811;SDS011;1921;49.368;11.068;2023-03-31T08:00:06;53.97;;;48.37;;
3811;SDS011;1921;49.368;11.068;2023-03-31T08:02:35;53.07;;;47.40;;
3811;SDS011;1921;49.368;11.068;2023-03-31T08:05:02;53.80;;;48.30;;
3811;SDS011;1921;49.368;11.068;2023-03-31T08:07:32;52.37;;;47.00;;
3811;SDS011;1921;49.368;11.068;2023-03-31T08:10:01;55.93;;;48.93;;
3811;SDS011;1921;49.368;11.068;2023-03-31T08:12:30;55.40;;;49.30;;
3811;SDS011;1921;49.368;11.068;2023-03-31T08:14:59;57.50;;;49.20;;
3811;SDS011;1921;49.368;11.068;2023-03-31T08:17:28;53.57;;;47.97;;
3811;SDS011;1921;49.368;11.068;2023-03-31T08:19:54;51.20;;;46.00;;
3811;SDS011;1921;49.368;11.068;2023-03-31T08:22:26;54.47;;;48.73;;
3811;SDS011;1921;49.368;11.068;2023-03-31T08:24:52;126.07;;;53.00;;
3811;SDS011;1921;49.368;11.068;2023-03-31T08:27:18;60.83;;;50.10;;
3811;SDS011;1921;49.368;11.068;2023-03-31T08:29:44;60.20;;;49.20;;
3811;SDS011;1921;49.368;11.068;2023-03-31T08:32:10;54.50;;;48.67;;
3811;SDS011;1921;49.368;11.068;2023-03-31T08:34:35;58.23;;;49.83;;
3811;SDS011;1921;49.368;11.068;2023-03-31T08:37:02;54.90;;;49.20;;
3811;SDS011;1921;49.368;11.068;2023-03-31T08:39:28;54.50;;;48.60;;
3811;SDS011;1921;49.368;11.068;2023-03-31T08:42:01;60.80;;;50.57;;
3811;SDS011;1921;49.368;11.068;2023-03-31T08:44:51;59.90;;;47.67;;
3811;SDS011;1921;49.368;11.068;2023-03-31T08:47:26;52.10;;;46.77;;
3811;SDS011;1921;49.368;11.068;2023-03-31T08:49:57;57.53;;;48.90;;
3811;SDS011;1921;49.368;11.068;2023-03-31T08:52:33;61.83;;;49.27;;
3811;SDS011;1921;49.368;11.068;2023-03-31T08:55:06;57.43;;;49.03;;
3811;SDS011;1921;49.368;11.068;2023-03-31T08:58:03;53.70;;;48.10;;
3811;SDS011;1921;49.368;11.068;2023-03-31T09:12:26;54.80;;;48.97;;
3811;SDS011;1921;49.368;11.068;2023-03-31T09:15:28;54.00;;;48.20;;
3811;SDS011;1921;49.368;11.068;2023-03-31T09:18:30;54.13;;;47.97;;
3811;SDS011;1921;49.368;11.068;2023-03-31T09:21:09;53.47;;;47.77;;
3811;SDS011;1921;49.368;11.068;2023-03-31T09:24:05;56.63;;;48.83;;
3811;SDS011;1921;49.368;11.068;2023-03-31T09:29:43;57.83;;;48.20;;
3811;SDS011;1921;49.368;11.068;2023-03-31T09:34:45;52.53;;;46.90;;
3811;SDS011;1921;49.368;11.068;2023-03-31T09:37:16;52.20;;;46.50;;
3811;SDS011;1921;49.368;11.068;2023-03-31T09:39:41;52.83;;;47.07;;
3811;SDS011;1921;49.368;11.068;2023-03-31T09:42:09;52.77;;;47.17;;
3811;SDS011;1921;49.368;11.068;2023-03-31T09:47:09;53.47;;;47.67;;
3811;SDS011;1921;49.368;11.068;2023-03-31T09:49:57;54.50;;;48.40;;
3811;SDS011;1921;49.368;11.068;2023-03-31T09:52:30;53.67;;;47.70;;
3811;SDS011;1921;49.368;11.068;2023-03-31T09:54:59;54.93;;;48.83;;
3811;SDS011;1921;49.368;11.068;2023-03-31T09:58:10;58.60;;;48.10;;
3811;SDS011;1921;49.368;11.068;2023-03-31T10:00:42;54.93;;;48.57;;
3811;SDS011;1921;49.368;11.068;2023-03-31T10:03:30;59.57;;;48.37;;
3811;SDS011;1921;49.368;11.068;2023-03-31T10:06:01;56.10;;;48.53;;
3811;SDS011;1921;49.368;11.068;2023-03-31T10:08:40;57.87;;;48.40;;
3811;SDS011;1921;49.368;11.068;2023-03-31T10:11:21;57.50;;;49.07;;
3811;SDS011;1921;49.368;11.068;2023-03-31T10:16:44;56.27;;;48.47;;
3811;SDS011;1921;49.368;11.068;2023-03-31T10:19:26;56.70;;;48.57;;
3811;SDS011;1921;49.368;11.068;2023-03-31T10:21:59;56.87;;;48.67;;
3811;SDS011;1921;49.368;11.068;2023-03-31T10:24:42;57.83;;;48.53;;
3811;SDS011;1921;49.368;11.068;2023-03-31T10:27:29;56.07;;;48.33;;
3811;SDS011;1921;49.368;11.068;2023-03-31T10:29:56;57.70;;;49.00;;
3811;SDS011;1921;49.368;11.068;2023-03-31T10:32:33;57.50;;;48.93;;
3811;SDS011;1921;49.368;11.068;2023-03-31T10:35:25;56.80;;;48.37;;
3811;SDS011;1921;49.368;11.068;2023-03-31T10:38:07;57.47;;;48.03;;
3811;SDS011;1921;49.368;11.068;2023-03-31T10:40:38;56.87;;;48.23;;
3811;SDS011;1921;49.368;11.068;2023-03-31T10:43:25;57.17;;;48.07;;
3811;SDS011;1921;49.368;11.068;2023-03-31T10:46:11;55.10;;;47.97;;
3811;SDS011;1921;49.368;11.068;2023-03-31T10:48:38;58.13;;;48.87;;
3811;SDS011;1921;49.368;11.068;2023-03-31T10:53:50;56.43;;;48.73;;
3811;SDS011;1921;49.368;11.068;2023-03-31T10:56:38;61.90;;;49.20;;
3811;SDS011;1921;49.368;11.068;2023-03-31T10:59:22;61.10;;;49.10;;
3811;SDS011;1921;49.368;11.068;2023-03-31T11:08:16;58.73;;;48.97;;
3811;SDS011;1921;49.368;11.068;2023-03-31T11:11:08;58.80;;;48.73;;
3811;SDS011;1921;49.368;11.068;2023-03-31T11:23:12;55.53;;;47.77;;
3811;SDS011;1921;49.368;11.068;2023-03-31T11:25:56;56.07;;;48.03;;
3811;SDS011;1921;49.368;11.068;2023-03-31T11:28:51;55.57;;;47.20;;
3811;SDS011;1921;49.368;11.068;2023-03-31T11:31:57;54.17;;;47.43;;
3811;SDS011;1921;49.368;11.068;2023-03-31T11:46:39;58.57;;;48.80;;
3811;SDS011;1921;49.368;11.068;2023-03-31T11:52:02;57.97;;;49.00;;
3811;SDS011;1921;49.368;11.068;2023-03-31T11:54:49;62.38;;;50.20;;
3811;SDS011;1921;49.368;11.068;2023-03-31T11:57:38;64.20;;;51.40;;
3811;SDS011;1921;49.368;11.068;2023-03-31T12:00:27;64.28;;;50.88;;
3811;SDS011;1921;49.368;11.068;2023-03-31T12:06:20;55.67;;;46.67;;
3811;SDS011;1921;49.368;11.068;2023-03-31T12:14:38;51.87;;;46.27;;
3811;SDS011;1921;49.368;11.068;2023-03-31T12:17:18;52.07;;;46.37;;
3811;SDS011;1921;49.368;11.068;2023-03-31T12:19:51;53.80;;;46.90;;
3811;SDS011;1921;49.368;11.068;2023-03-31T12:22:25;53.20;;;46.80;;
3811;SDS011;1921;49.368;11.068;2023-03-31T12:25:03;58.30;;;47.20;;
3811;SDS011;1921;49.368;11.068;2023-03-31T12:27:39;52.90;;;46.87;;
3811;SDS011;1921;49.368;11.068;2023-03-31T12:32:48;55.70;;;47.57;;
3811;SDS011;1921;49.368;11.068;2023-03-31T12:41:19;56.17;;;47.67;;
3811;SDS011;1921;49.368;11.068;2023-03-31T12:56:04;59.00;;;48.20;;
3811;SDS011;1921;49.368;11.068;2023-03-31T13:01:05;56.50;;;47.40;;
3811;SDS011;1921;49.368;11.068;2023-03-31T13:03:49;57.13;;;47.63;;
3811;SDS011;1921;49.368;11.068;2023-03-31T13:11:57;56.47;;;48.30;;
3811;SDS011;1921;49.368;11.068;2023-03-31T13:14:39;50.90;;;45.50;;
3811;SDS011;1921;49.368;11.068;2023-03-31T13:17:23;50.07;;;45.07;;
3811;SDS011;1921;49.368;11.068;2023-03-31T13:20:17;50.47;;;44.80;;
3811;SDS011;1921;49.368;11.068;2023-03-31T13:23:17;49.13;;;44.13;;
3811;SDS011;1921;49.368;11.068;2023-03-31T13:30:47;50.20;;;44.90;;
3811;SDS011;1921;49.368;11.068;2023-03-31T13:33:26;50.50;;;45.00;;
3811;SDS011;1921;49.368;11.068;2023-03-31T13:36:02;52.00;;;46.40;;
3811;SDS011;1921;49.368;11.068;2023-03-31T13:44:48;52.33;;;46.23;;
3811;SDS011;1921;49.368;11.068;2023-03-31T13:47:54;56.03;;;46.43;;
3811;SDS011;1921;49.368;11.068;2023-03-31T13:50:40;54.33;;;47.13;;
3811;SDS011;1921;49.368;11.068;2023-03-31T14:10:22;52.90;;;46.90;;
3811;SDS011;1921;49.368;11.068;2023-03-31T14:12:51;51.63;;;46.10;;
3811;SDS011;1921;49.368;11.068;2023-03-31T14:15:50;51.90;;;46.40;;
3811;SDS011;1921;49.368;11.068;2023-03-31T14:18:24;51.23;;;45.67;;
3811;SDS011;1921;49.368;11.068;2023-03-31T14:29:43;53.60;;;46.07;;
3811;SDS011;1921;49.368;11.068;2023-03-31T14:32:49;52.17;;;46.47;;
3811;SDS011;1921;49.368;11.068;2023-03-31T14:35:34;52.60;;;46.67;;
3811;SDS011;1921;49.368;11.068;2023-03-31T14:38:15;52.47;;;46.73;;
3811;SDS011;1921;49.368;11.068;2023-03-31T14:40:52;58.10;;;46.80;;
3811;SDS011;1921;49.368;11.068;2023-03-31T14:43:22;54.50;;;47.03;;
3811;SDS011;1921;49.368;11.068;2023-03-31T14:46:04;55.17;;;47.07;;
3811;SDS011;1921;49.368;11.068;2023-03-31T14:48:33;54.67;;;46.80;;
3811;SDS011;1921;49.368;11.068;2023-03-31T14:51:12;58.37;;;47.30;;
3811;SDS011;1921;49.368;11.068;2023-03-31T14:53:41;53.47;;;47.40;;
3811;SDS011;1921;49.368;11.068;2023-03-31T14:56:17;54.73;;;47.60;;
3811;SDS011;1921;49.368;11.068;2023-03-31T14:58:52;52.83;;;46.80;;
3811;SDS011;1921;49.368;11.068;2023-03-31T15:01:20;52.53;;;46.83;;
3811;SDS011;1921;49.368;11.068;2023-03-31T15:03:53;53.07;;;46.50;;
3811;SDS011;1921;49.368;11.068;2023-03-31T15:06:19;52.33;;;46.63;;
3811;SDS011;1921;49.368;11.068;2023-03-31T15:08:50;52.53;;;46.73;;
3811;SDS011;1921;49.368;11.068;2023-03-31T15:11:21;55.60;;;47.10;;
3811;SDS011;1921;49.368;11.068;2023-03-31T15:13:48;54.30;;;47.40;;
3811;SDS011;1921;49.368;11.068;2023-03-31T15:18:55;57.57;;;47.10;;
3811;SDS011;1921;49.368;11.068;2023-03-31T15:21:24;53.40;;;47.17;;
3811;SDS011;1921;49.368;11.068;2023-03-31T15:23:55;53.70;;;47.23;;
3811;SDS011;1921;49.368;11.068;2023-03-31T15:26:31;54.03;;;46.73;;
3811;SDS011;1921;49.368;11.068;2023-03-31T15:29:17;56.40;;;46.50;;
3811;SDS011;1921;49.368;11.068;2023-03-31T15:31:49;52.10;;;46.30;;
3811;SDS011;1921;49.368;11.068;2023-03-31T15:34:20;53.17;;;46.93;;
3811;SDS011;1921;49.368;11.068;2023-03-31T15:36:52;51.93;;;46.23;;
3811;SDS011;1921;49.368;11.068;2023-03-31T15:39:20;52.03;;;46.33;;
3811;SDS011;1921;49.368;11.068;2023-03-31T15:41:52;52.00;;;46.40;;
3811;SDS011;1921;49.368;11.068;2023-03-31T15:44:27;52.03;;;46.37;;
3811;SDS011;1921;49.368;11.068;2023-03-31T15:47:00;52.90;;;46.33;;
3811;SDS011;1921;49.368;11.068;2023-03-31T15:49:54;51.90;;;46.30;;
3811;SDS011;1921;49.368;11.068;2023-03-31T15:52:37;52.03;;;45.90;;
3811;SDS011;1921;49.368;11.068;2023-03-31T15:55:30;51.37;;;45.90;;
3811;SDS011;1921;49.368;11.068;2023-03-31T15:58:07;52.07;;;46.37;;
3811;SDS011;1921;49.368;11.068;2023-03-31T16:00:41;52.30;;;46.53;;
3811;SDS011;1921;49.368;11.068;2023-03-31T16:03:25;56.73;;;46.50;;
3811;SDS011;1921;49.368;11.068;2023-03-31T16:09:25;52.17;;;46.50;;
3811;SDS011;1921;49.368;11.068;2023-03-31T16:12:24;52.70;;;46.90;;
3811;SDS011;1921;49.368;11.068;2023-03-31T16:15:16;52.87;;;46.63;;
3811;SDS011;1921;49.368;11.068;2023-03-31T16:17:55;52.43;;;46.57;;
3811;SDS011;1921;49.368;11.068;2023-03-31T16:20:28;55.23;;;46.47;;
3811;SDS011;1921;49.368;11.068;2023-03-31T16:23:01;52.70;;;46.90;;
3811;SDS011;1921;49.368;11.068;2023-03-31T16:25:47;56.77;;;46.93;;
3811;SDS011;1921;49.368;11.068;2023-03-31T16:28:17;52.47;;;46.77;;
3811;SDS011;1921;49.368;11.068;2023-03-31T16:30:47;52.63;;;46.83;;
3811;SDS011;1921;49.368;11.068;2023-03-31T16:33:14;54.40;;;46.87;;
3811;SDS011;1921;49.368;11.068;2023-03-31T16:35:45;51.97;;;46.27;;
3811;SDS011;1921;49.368;11.068;2023-03-31T16:38:15;53.20;;;47.43;;
3811;SDS011;1921;49.368;11.068;2023-03-31T16:40:42;52.17;;;46.40;;
3811;SDS011;1921;49.368;11.068;2023-03-31T16:43:14;51.90;;;46.30;;
3811;SDS011;1921;49.368;11.068;2023-03-31T16:45:54;52.10;;;46.40;;
3811;SDS011;1921;49.368;11.068;2023-03-31T16:48:26;51.33;;;45.87;;
3811;SDS011;1921;49.368;11.068;2023-03-31T16:50:54;51.60;;;46.10;;
3811;SDS011;1921;49.368;11.068;2023-03-31T16:53:23;52.27;;;46.67;;
3811;SDS011;1921;49.368;11.068;2023-03-31T16:55:52;51.83;;;46.23;;
3811;SDS011;1921;49.368;11.068;2023-03-31T16:58:19;51.10;;;45.60;;
3811;SDS011;1921;49.368;11.068;2023-03-31T17:00:46;53.20;;;46.33;;
3811;SDS011;1921;49.368;11.068;2023-03-31T17:03:12;51.73;;;46.13;;
3811;SDS011;1921;49.368;11.068;2023-03-31T17:05:43;51.50;;;45.90;;
3811;SDS011;1921;49.368;11.068;2023-03-31T17:08:11;51.07;;;45.67;;
3811;SDS011;1921;49.368;11.068;2023-03-31T17:10:39;51.60;;;46.00;;
3811;SDS011;1921;49.368;11.068;2023-03-31T17:13:05;51.10;;;45.70;;
3811;SDS011;1921;49.368;11.068;2023-03-31T17:15:33;52.07;;;46.20;;
3811;SDS011;1921;49.368;11.068;2023-03-31T17:18:00;51.40;;;45.80;;
3811;SDS011;1921;49.368;11.068;2023-03-31T17:20:28;50.80;;;45.50;;
3811;SDS011;1921;49.368;11.068;2023-03-31T17:23:39;51.70;;;45.30;;
3811;SDS011;1921;49.368;11.068;2023-03-31T17:26:08;50.40;;;45.20;;
3811;SDS011;1921;49.368;11.068;2023-03-31T17:28:38;51.10;;;45.60;;
3811;SDS011;1921;49.368;11.068;2023-03-31T17:31:11;51.00;;;45.60;;
3811;SDS011;1921;49.368;11.068;2023-03-31T17:33:40;51.13;;;45.63;;
3811;SDS011;1921;49.368;11.068;2023-03-31T17:36:08;50.90;;;45.50;;
3811;SDS011;1921;49.368;11.068;2023-03-31T17:38:34;50.17;;;45.07;;
3811;SDS011;1921;49.368;11.068;2023-03-31T17:41:03;50.17;;;45.03;;
3811;SDS011;1921;49.368;11.068;2023-03-31T17:43:30;51.07;;;45.63;;
3811;SDS011;1921;49.368;11.068;2023-03-31T17:46:04;51.03;;;45.63;;
3811;SDS011;1921;49.368;11.068;2023-03-31T17:48:32;50.50;;;45.30;;
3811;SDS011;1921;49.368;11.068;2023-03-31T17:51:02;51.00;;;45.63;;
3811;SDS011;1921;49.368;11.068;2023-03-31T17:53:34;50.87;;;45.47;;
3811;SDS011;1921;49.368;11.068;2023-03-31T17:56:00;50.30;;;45.10;;
3811;SDS011;1921;49.368;11.068;2023-03-31T17:58:27;50.20;;;45.00;;
3811;SDS011;1921;49.368;11.068;2023-03-31T18:00:54;50.03;;;44.97;;
3811;SDS011;1921;49.368;11.068;2023-03-31T18:03:20;50.80;;;45.40;;